sensor_id;sensor_type;location;lat;lon;timestamp;temperature;humidity
292;DHT22;23311;48.776;9.162;2023-11-19T00:01:17;8.50;95.50
292;DHT22;23311;48.776;9.162;2023-11-19T00:03:46;8.40;95.50
292;DHT22;23311;48.776;9.162;2023-11-19T00:06:17;8.40;95.50
292;DHT22;23311;48.776;9.162;2023-11-19T00:08:45;8.50;95.50
292;DHT22;23311;48.776;9.162;2023-11-19T00:11:13;8.50;95.50
292;DHT22;23311;48.776;9.162;2023-11-19T00:13:42;8.50;95.50
292;DHT22;23311;48.776;9.162;2023-11-19T00:16:10;8.60;95.50
292;DHT22;23311;48.776;9.162;2023-11-19T00:18:39;8.60;95.50
292;DHT22;23311;48.776;9.162;2023-11-19T00:21:08;8.70;95.50
292;DHT22;23311;48.776;9.162;2023-11-19T00:23:37;8.70;95.50
292;DHT22;23311;48.776;9.162;2023-11-19T00:26:05;8.80;95.50
292;DHT22;23311;48.776;9.162;2023-11-19T00:28:34;8.90;95.50
292;DHT22;23311;48.776;9.162;2023-11-19T00:31:05;9.00;95.50
292;DHT22;23311;48.776;9.162;2023-11-19T00:33:33;9.00;95.50
292;DHT22;23311;48.776;9.162;2023-11-19T00:36:01;9.10;95.50
292;DHT22;23311;48.776;9.162;2023-11-19T00:38:31;9.20;95.50
292;DHT22;23311;48.776;9.162;2023-11-19T00:40:59;9.30;95.50
292;DHT22;23311;48.776;9.162;2023-11-19T00:43:29;9.30;95.50
292;DHT22;23311;48.776;9.162;2023-11-19T00:45:57;9.40;95.50
292;DHT22;23311;48.776;9.162;2023-11-19T00:48:25;9.40;95.50
292;DHT22;23311;48.776;9.162;2023-11-19T00:50:55;9.50;95.50
292;DHT22;23311;48.776;9.162;2023-11-19T00:53:23;9.50;95.50
292;DHT22;23311;48.776;9.162;2023-11-19T00:55:52;9.50;95.50
292;DHT22;23311;48.776;9.162;2023-11-19T00:58:20;9.60;95.50
292;DHT22;23311;48.776;9.162;2023-11-19T01:00:48;9.60;95.50
292;DHT22;23311;48.776;9.162;2023-11-19T01:03:17;9.60;95.50
292;DHT22;23311;48.776;9.162;2023-11-19T01:05:45;9.70;95.50
292;DHT22;23311;48.776;9.162;2023-11-19T01:08:15;9.70;95.50
292;DHT22;23311;48.776;9.162;2023-11-19T01:10:44;9.70;95.50
292;DHT22;23311;48.776;9.162;2023-11-19T01:13:13;9.80;95.50
292;DHT22;23311;48.776;9.162;2023-11-19T01:15:41;9.80;95.50
292;DHT22;23311;48.776;9.162;2023-11-19T01:18:10;9.90;95.50
292;DHT22;23311;48.776;9.162;2023-11-19T01:20:38;9.90;95.50
292;DHT22;23311;48.776;9.162;2023-11-19T01:23:07;9.90;95.50
292;DHT22;23311;48.776;9.162;2023-11-19T01:25:35;9.90;95.50
292;DHT22;23311;48.776;9.162;2023-11-19T01:28:05;10.00;95.50
292;DHT22;23311;48.776;9.162;2023-11-19T01:30:34;10.00;95.50
292;DHT22;23311;48.776;9.162;2023-11-19T01:33:02;10.00;95.50
292;DHT22;23311;48.776;9.162;2023-11-19T01:35:30;10.00;95.50
292;DHT22;23311;48.776;9.162;2023-11-19T01:37:58;10.10;95.50
292;DHT22;23311;48.776;9.162;2023-11-19T01:40:26;10.10;95.50
292;DHT22;23311;48.776;9.162;2023-11-19T01:42:54;10.10;95.50
292;DHT22;23311;48.776;9.162;2023-11-19T01:45:28;10.20;95.50
292;DHT22;23311;48.776;9.162;2023-11-19T01:48:00;10.20;95.50
292;DHT22;23311;48.776;9.162;2023-11-19T01:50:31;10.20;95.50
292;DHT22;23311;48.776;9.162;2023-11-19T01:53:01;10.30;95.50
292;DHT22;23311;48.776;9.162;2023-11-19T01:55:29;10.30;95.50
292;DHT22;23311;48.776;9.162;2023-11-19T01:58:00;10.30;95.50
292;DHT22;23311;48.776;9.162;2023-11-19T02:00:30;10.40;95.50
292;DHT22;23311;48.776;9.162;2023-11-19T02:03:01;10.40;95.50
292;DHT22;23311;48.776;9.162;2023-11-19T02:05:31;10.40;95.50
292;DHT22;23311;48.776;9.162;2023-11-19T02:07:59;10.40;95.50
292;DHT22;23311;48.776;9.162;2023-11-19T02:10:27;10.40;95.50
292;DHT22;23311;48.776;9.162;2023-11-19T02:12:55;10.40;95.50
292;DHT22;23311;48.776;9.162;2023-11-19T02:15:32;10.40;95.50
292;DHT22;23311;48.776;9.162;2023-11-19T02:18:22;10.40;95.50
292;DHT22;23311;48.776;9.162;2023-11-19T02:20:52;10.40;95.50
292;DHT22;23311;48.776;9.162;2023-11-19T02:23:21;10.50;95.50
292;DHT22;23311;48.776;9.162;2023-11-19T02:25:59;10.50;95.50
292;DHT22;23311;48.776;9.162;2023-11-19T02:28:30;10.50;95.50
292;DHT22;23311;48.776;9.162;2023-11-19T02:30:59;10.40;95.50
292;DHT22;23311;48.776;9.162;2023-11-19T02:33:27;10.50;95.50
292;DHT22;23311;48.776;9.162;2023-11-19T02:35:56;10.50;95.50
292;DHT22;23311;48.776;9.162;2023-11-19T02:38:24;10.50;95.50
292;DHT22;23311;48.776;9.162;2023-11-19T02:40:52;10.50;95.50
292;DHT22;23311;48.776;9.162;2023-11-19T02:43:20;10.50;95.50
292;DHT22;23311;48.776;9.162;2023-11-19T02:45:50;10.50;95.50
292;DHT22;23311;48.776;9.162;2023-11-19T02:48:18;10.50;95.50
292;DHT22;23311;48.776;9.162;2023-11-19T02:50:47;10.60;95.50
292;DHT22;23311;48.776;9.162;2023-11-19T02:53:15;10.60;95.50
292;DHT22;23311;48.776;9.162;2023-11-19T02:55:44;10.60;95.50
292;DHT22;23311;48.776;9.162;2023-11-19T02:58:16;10.60;95.50
292;DHT22;23311;48.776;9.162;2023-11-19T03:00:52;10.60;95.50
292;DHT22;23311;48.776;9.162;2023-11-19T03:03:24;10.60;95.50
292;DHT22;23311;48.776;9.162;2023-11-19T03:05:56;10.60;95.50
292;DHT22;23311;48.776;9.162;2023-11-19T03:08:24;10.50;95.50
292;DHT22;23311;48.776;9.162;2023-11-19T03:10:52;10.60;95.50
292;DHT22;23311;48.776;9.162;2023-11-19T03:13:20;10.60;95.50
292;DHT22;23311;48.776;9.162;2023-11-19T03:15:49;10.70;95.50
292;DHT22;23311;48.776;9.162;2023-11-19T03:18:18;10.60;95.50
292;DHT22;23311;48.776;9.162;2023-11-19T03:20:46;10.70;95.50
292;DHT22;23311;48.776;9.162;2023-11-19T03:23:14;10.70;95.50
292;DHT22;23311;48.776;9.162;2023-11-19T03:25:42;10.70;95.50
292;DHT22;23311;48.776;9.162;2023-11-19T03:28:11;10.70;95.50
292;DHT22;23311;48.776;9.162;2023-11-19T03:30:39;10.70;95.50
292;DHT22;23311;48.776;9.162;2023-11-19T03:33:07;10.70;95.50
292;DHT22;23311;48.776;9.162;2023-11-19T03:35:36;10.70;95.50
292;DHT22;23311;48.776;9.162;2023-11-19T03:38:04;10.80;95.50
292;DHT22;23311;48.776;9.162;2023-11-19T03:40:32;10.80;95.50
292;DHT22;23311;48.776;9.162;2023-11-19T03:43:01;10.80;95.50
292;DHT22;23311;48.776;9.162;2023-11-19T03:45:31;10.80;95.50
292;DHT22;23311;48.776;9.162;2023-11-19T03:47:59;10.80;95.50
292;DHT22;23311;48.776;9.162;2023-11-19T03:50:27;10.70;95.50
292;DHT22;23311;48.776;9.162;2023-11-19T03:52:56;10.80;95.50
292;DHT22;23311;48.776;9.162;2023-11-19T03:55:25;10.80;95.50
292;DHT22;23311;48.776;9.162;2023-11-19T03:57:53;10.80;95.50
292;DHT22;23311;48.776;9.162;2023-11-19T04:00:21;10.90;95.50
292;DHT22;23311;48.776;9.162;2023-11-19T04:02:49;10.90;95.50
292;DHT22;23311;48.776;9.162;2023-11-19T04:05:17;10.90;95.50
292;DHT22;23311;48.776;9.162;2023-11-19T04:07:46;10.90;95.50
292;DHT22;23311;48.776;9.162;2023-11-19T04:10:16;10.90;95.50
292;DHT22;23311;48.776;9.162;2023-11-19T04:12:45;10.90;95.50
292;DHT22;23311;48.776;9.162;2023-11-19T04:15:14;10.90;95.50
292;DHT22;23311;48.776;9.162;2023-11-19T04:17:42;10.90;95.50
292;DHT22;23311;48.776;9.162;2023-11-19T04:20:11;10.90;95.50
292;DHT22;23311;48.776;9.162;2023-11-19T04:22:41;10.90;95.50
292;DHT22;23311;48.776;9.162;2023-11-19T04:25:10;10.90;95.50
292;DHT22;23311;48.776;9.162;2023-11-19T04:27:39;11.00;95.50
292;DHT22;23311;48.776;9.162;2023-11-19T04:30:08;11.00;95.50
292;DHT22;23311;48.776;9.162;2023-11-19T04:32:37;11.10;95.50
292;DHT22;23311;48.776;9.162;2023-11-19T04:35:07;11.10;95.50
292;DHT22;23311;48.776;9.162;2023-11-19T04:37:36;11.10;95.50
292;DHT22;23311;48.776;9.162;2023-11-19T04:40:05;11.10;95.50
292;DHT22;23311;48.776;9.162;2023-11-19T04:42:33;11.10;95.50
292;DHT22;23311;48.776;9.162;2023-11-19T04:45:03;11.10;95.50
292;DHT22;23311;48.776;9.162;2023-11-19T04:47:33;11.10;95.50
292;DHT22;23311;48.776;9.162;2023-11-19T04:50:01;11.20;95.50
292;DHT22;23311;48.776;9.162;2023-11-19T04:52:29;11.20;95.50
292;DHT22;23311;48.776;9.162;2023-11-19T04:54:58;11.20;95.50
292;DHT22;23311;48.776;9.162;2023-11-19T04:57:26;11.20;95.50
292;DHT22;23311;48.776;9.162;2023-11-19T04:59:54;11.20;95.50
292;DHT22;23311;48.776;9.162;2023-11-19T05:02:23;11.20;95.50
292;DHT22;23311;48.776;9.162;2023-11-19T05:04:52;11.20;95.50
292;DHT22;23311;48.776;9.162;2023-11-19T05:07:20;11.30;95.50
292;DHT22;23311;48.776;9.162;2023-11-19T05:09:48;11.30;95.50
292;DHT22;23311;48.776;9.162;2023-11-19T05:12:16;11.30;95.50
292;DHT22;23311;48.776;9.162;2023-11-19T05:14:44;11.30;95.50
292;DHT22;23311;48.776;9.162;2023-11-19T05:17:17;11.30;95.50
292;DHT22;23311;48.776;9.162;2023-11-19T05:19:47;11.40;95.50
292;DHT22;23311;48.776;9.162;2023-11-19T05:22:15;11.40;95.50
292;DHT22;23311;48.776;9.162;2023-11-19T05:24:43;11.40;95.50
292;DHT22;23311;48.776;9.162;2023-11-19T05:27:12;11.40;95.50
292;DHT22;23311;48.776;9.162;2023-11-19T05:29:40;11.40;95.50
292;DHT22;23311;48.776;9.162;2023-11-19T05:32:09;11.40;95.50
292;DHT22;23311;48.776;9.162;2023-11-19T05:34:38;11.50;95.50
292;DHT22;23311;48.776;9.162;2023-11-19T05:37:19;11.40;95.50
292;DHT22;23311;48.776;9.162;2023-11-19T05:39:48;11.50;95.50
292;DHT22;23311;48.776;9.162;2023-11-19T05:42:16;11.50;95.50
292;DHT22;23311;48.776;9.162;2023-11-19T05:44:44;11.50;95.50
292;DHT22;23311;48.776;9.162;2023-11-19T05:47:12;11.50;95.50
292;DHT22;23311;48.776;9.162;2023-11-19T05:49:40;11.50;95.50
292;DHT22;23311;48.776;9.162;2023-11-19T05:52:08;11.60;95.50
292;DHT22;23311;48.776;9.162;2023-11-19T05:54:39;11.60;95.50
292;DHT22;23311;48.776;9.162;2023-11-19T05:57:07;11.70;95.50
292;DHT22;23311;48.776;9.162;2023-11-19T05:59:36;11.60;95.50
292;DHT22;23311;48.776;9.162;2023-11-19T06:02:04;11.60;95.50
292;DHT22;23311;48.776;9.162;2023-11-19T06:04:32;11.60;95.50
292;DHT22;23311;48.776;9.162;2023-11-19T06:07:00;11.60;95.50
292;DHT22;23311;48.776;9.162;2023-11-19T06:09:29;11.60;95.50
292;DHT22;23311;48.776;9.162;2023-11-19T06:11:58;11.60;95.50
292;DHT22;23311;48.776;9.162;2023-11-19T06:14:28;11.60;95.50
292;DHT22;23311;48.776;9.162;2023-11-19T06:16:56;11.60;95.50
292;DHT22;23311;48.776;9.162;2023-11-19T06:19:24;11.60;95.50
292;DHT22;23311;48.776;9.162;2023-11-19T06:21:56;11.70;95.50
292;DHT22;23311;48.776;9.162;2023-11-19T06:24:24;11.70;95.50
292;DHT22;23311;48.776;9.162;2023-11-19T06:26:52;11.70;95.50
292;DHT22;23311;48.776;9.162;2023-11-19T06:29:22;11.80;95.50
292;DHT22;23311;48.776;9.162;2023-11-19T06:31:50;11.80;95.50
292;DHT22;23311;48.776;9.162;2023-11-19T06:34:18;11.80;95.50
292;DHT22;23311;48.776;9.162;2023-11-19T06:36:46;11.80;95.50
292;DHT22;23311;48.776;9.162;2023-11-19T06:39:15;11.90;95.50
292;DHT22;23311;48.776;9.162;2023-11-19T06:41:47;11.90;95.50
292;DHT22;23311;48.776;9.162;2023-11-19T06:44:15;11.90;95.50
292;DHT22;23311;48.776;9.162;2023-11-19T06:46:46;11.90;95.50
292;DHT22;23311;48.776;9.162;2023-11-19T06:49:14;11.90;95.50
292;DHT22;23311;48.776;9.162;2023-11-19T06:51:43;11.90;95.50
292;DHT22;23311;48.776;9.162;2023-11-19T06:54:13;11.90;95.50
292;DHT22;23311;48.776;9.162;2023-11-19T06:56:41;11.90;95.50
292;DHT22;23311;48.776;9.162;2023-11-19T06:59:09;11.90;95.50
292;DHT22;23311;48.776;9.162;2023-11-19T07:01:37;11.90;95.50
292;DHT22;23311;48.776;9.162;2023-11-19T07:04:07;11.90;95.50
292;DHT22;23311;48.776;9.162;2023-11-19T07:06:36;11.80;95.50
292;DHT22;23311;48.776;9.162;2023-11-19T07:09:04;11.70;95.50
292;DHT22;23311;48.776;9.162;2023-11-19T07:11:39;11.60;95.50
292;DHT22;23311;48.776;9.162;2023-11-19T07:14:08;11.60;95.50
292;DHT22;23311;48.776;9.162;2023-11-19T07:16:36;11.60;95.50
292;DHT22;23311;48.776;9.162;2023-11-19T07:19:06;11.60;95.50
292;DHT22;23311;48.776;9.162;2023-11-19T07:21:35;11.70;95.50
292;DHT22;23311;48.776;9.162;2023-11-19T07:24:06;11.70;95.50
292;DHT22;23311;48.776;9.162;2023-11-19T07:26:35;11.80;95.50
292;DHT22;23311;48.776;9.162;2023-11-19T07:29:04;11.80;95.50
292;DHT22;23311;48.776;9.162;2023-11-19T07:31:34;11.90;95.50
292;DHT22;23311;48.776;9.162;2023-11-19T07:34:02;11.90;95.50
292;DHT22;23311;48.776;9.162;2023-11-19T07:36:33;11.90;95.50
292;DHT22;23311;48.776;9.162;2023-11-19T07:39:03;11.90;95.50
292;DHT22;23311;48.776;9.162;2023-11-19T07:41:32;12.00;95.50
292;DHT22;23311;48.776;9.162;2023-11-19T07:44:00;12.00;95.50
292;DHT22;23311;48.776;9.162;2023-11-19T07:46:28;12.10;95.50
292;DHT22;23311;48.776;9.162;2023-11-19T07:48:56;12.10;95.50
292;DHT22;23311;48.776;9.162;2023-11-19T07:51:24;12.10;95.50
292;DHT22;23311;48.776;9.162;2023-11-19T07:53:54;12.10;95.50
292;DHT22;23311;48.776;9.162;2023-11-19T07:56:22;12.10;95.50
292;DHT22;23311;48.776;9.162;2023-11-19T07:58:50;12.20;95.50
292;DHT22;23311;48.776;9.162;2023-11-19T08:01:18;12.20;95.50
292;DHT22;23311;48.776;9.162;2023-11-19T08:03:46;12.20;95.50
292;DHT22;23311;48.776;9.162;2023-11-19T08:06:17;12.30;95.50
292;DHT22;23311;48.776;9.162;2023-11-19T08:08:45;12.30;95.50
292;DHT22;23311;48.776;9.162;2023-11-19T08:11:16;12.40;95.50
292;DHT22;23311;48.776;9.162;2023-11-19T08:13:44;12.40;95.50
292;DHT22;23311;48.776;9.162;2023-11-19T08:16:12;12.50;95.50
292;DHT22;23311;48.776;9.162;2023-11-19T08:18:42;12.60;95.50
292;DHT22;23311;48.776;9.162;2023-11-19T08:21:10;12.60;95.50
292;DHT22;23311;48.776;9.162;2023-11-19T08:23:38;12.70;95.50
292;DHT22;23311;48.776;9.162;2023-11-19T08:26:07;12.60;95.50
292;DHT22;23311;48.776;9.162;2023-11-19T08:28:37;12.60;95.50
292;DHT22;23311;48.776;9.162;2023-11-19T08:31:05;12.60;95.50
292;DHT22;23311;48.776;9.162;2023-11-19T08:33:34;12.70;95.50
292;DHT22;23311;48.776;9.162;2023-11-19T08:36:03;13.00;95.50
292;DHT22;23311;48.776;9.162;2023-11-19T08:38:31;13.30;95.50
292;DHT22;23311;48.776;9.162;2023-11-19T08:40:59;13.50;95.50
292;DHT22;23311;48.776;9.162;2023-11-19T08:43:27;13.50;95.50
292;DHT22;23311;48.776;9.162;2023-11-19T08:45:57;13.70;95.50
292;DHT22;23311;48.776;9.162;2023-11-19T08:48:26;13.90;95.50
292;DHT22;23311;48.776;9.162;2023-11-19T08:50:54;13.90;95.50
292;DHT22;23311;48.776;9.162;2023-11-19T08:53:22;13.80;95.50
292;DHT22;23311;48.776;9.162;2023-11-19T08:55:50;13.80;95.50
292;DHT22;23311;48.776;9.162;2023-11-19T08:58:18;13.60;95.50
292;DHT22;23311;48.776;9.162;2023-11-19T09:00:46;13.60;95.50
292;DHT22;23311;48.776;9.162;2023-11-19T09:03:16;13.60;95.50
292;DHT22;23311;48.776;9.162;2023-11-19T09:05:44;13.70;95.50
292;DHT22;23311;48.776;9.162;2023-11-19T09:08:12;13.90;95.50
292;DHT22;23311;48.776;9.162;2023-11-19T09:10:40;14.10;95.50
292;DHT22;23311;48.776;9.162;2023-11-19T09:13:08;14.30;95.50
292;DHT22;23311;48.776;9.162;2023-11-19T09:15:36;14.40;95.50
292;DHT22;23311;48.776;9.162;2023-11-19T09:18:05;14.40;95.50
292;DHT22;23311;48.776;9.162;2023-11-19T09:20:34;14.40;95.50
292;DHT22;23311;48.776;9.162;2023-11-19T09:23:05;14.50;95.50
292;DHT22;23311;48.776;9.162;2023-11-19T09:25:35;14.50;95.50
292;DHT22;23311;48.776;9.162;2023-11-19T09:28:06;14.40;95.50
292;DHT22;23311;48.776;9.162;2023-11-19T09:30:35;14.40;95.50
292;DHT22;23311;48.776;9.162;2023-11-19T09:33:03;14.40;95.50
292;DHT22;23311;48.776;9.162;2023-11-19T09:35:33;14.50;95.50
292;DHT22;23311;48.776;9.162;2023-11-19T09:38:02;14.70;95.50
292;DHT22;23311;48.776;9.162;2023-11-19T09:40:32;15.00;95.50
292;DHT22;23311;48.776;9.162;2023-11-19T09:43:00;15.30;95.50
292;DHT22;23311;48.776;9.162;2023-11-19T09:45:29;15.40;95.50
292;DHT22;23311;48.776;9.162;2023-11-19T09:48:00;15.40;95.50
292;DHT22;23311;48.776;9.162;2023-11-19T09:50:29;15.30;95.50
292;DHT22;23311;48.776;9.162;2023-11-19T09:52:58;15.10;95.50
292;DHT22;23311;48.776;9.162;2023-11-19T09:55:26;14.90;95.50
292;DHT22;23311;48.776;9.162;2023-11-19T09:57:55;15.00;95.50
292;DHT22;23311;48.776;9.162;2023-11-19T10:00:23;15.00;95.50
292;DHT22;23311;48.776;9.162;2023-11-19T10:02:52;15.00;95.50
292;DHT22;23311;48.776;9.162;2023-11-19T10:05:22;15.40;95.50
292;DHT22;23311;48.776;9.162;2023-11-19T10:07:51;15.60;95.50
292;DHT22;23311;48.776;9.162;2023-11-19T10:10:21;15.80;95.50
292;DHT22;23311;48.776;9.162;2023-11-19T10:12:51;15.90;95.50
292;DHT22;23311;48.776;9.162;2023-11-19T10:15:23;16.00;95.50
292;DHT22;23311;48.776;9.162;2023-11-19T10:17:55;16.00;95.50
292;DHT22;23311;48.776;9.162;2023-11-19T10:20:24;15.90;95.50
292;DHT22;23311;48.776;9.162;2023-11-19T10:22:52;16.00;95.50
292;DHT22;23311;48.776;9.162;2023-11-19T10:25:23;16.00;95.50
292;DHT22;23311;48.776;9.162;2023-11-19T10:27:52;16.30;95.50
292;DHT22;23311;48.776;9.162;2023-11-19T10:30:21;16.20;95.50
292;DHT22;23311;48.776;9.162;2023-11-19T10:33:05;16.40;95.50
292;DHT22;23311;48.776;9.162;2023-11-19T10:35:35;16.50;95.50
292;DHT22;23311;48.776;9.162;2023-11-19T10:38:13;16.50;95.50
292;DHT22;23311;48.776;9.162;2023-11-19T10:40:43;16.30;95.50
292;DHT22;23311;48.776;9.162;2023-11-19T10:43:12;16.30;95.50
292;DHT22;23311;48.776;9.162;2023-11-19T10:45:41;16.30;95.50
292;DHT22;23311;48.776;9.162;2023-11-19T10:48:09;16.30;95.50
292;DHT22;23311;48.776;9.162;2023-11-19T10:50:40;16.30;95.50
292;DHT22;23311;48.776;9.162;2023-11-19T10:53:10;16.00;95.50
292;DHT22;23311;48.776;9.162;2023-11-19T10:55:39;15.90;95.50
292;DHT22;23311;48.776;9.162;2023-11-19T10:58:09;16.00;95.50
292;DHT22;23311;48.776;9.162;2023-11-19T11:00:41;16.10;95.50
292;DHT22;23311;48.776;9.162;2023-11-19T11:03:16;16.30;95.50
292;DHT22;23311;48.776;9.162;2023-11-19T11:05:46;16.30;95.50
292;DHT22;23311;48.776;9.162;2023-11-19T11:08:15;16.40;95.50
292;DHT22;23311;48.776;9.162;2023-11-19T11:10:45;16.40;95.50
292;DHT22;23311;48.776;9.162;2023-11-19T11:13:18;16.40;95.50
292;DHT22;23311;48.776;9.162;2023-11-19T11:15:47;16.30;95.50
292;DHT22;23311;48.776;9.162;2023-11-19T11:18:16;16.30;95.50
292;DHT22;23311;48.776;9.162;2023-11-19T11:20:45;16.30;95.50
292;DHT22;23311;48.776;9.162;2023-11-19T11:27:02;16.20;95.50
292;DHT22;23311;48.776;9.162;2023-11-19T11:29:40;16.10;95.50
292;DHT22;23311;48.776;9.162;2023-11-19T11:32:19;16.10;95.50
292;DHT22;23311;48.776;9.162;2023-11-19T11:34:58;16.10;95.50
292;DHT22;23311;48.776;9.162;2023-11-19T11:37:33;16.00;95.50
292;DHT22;23311;48.776;9.162;2023-11-19T11:40:03;15.80;95.50
292;DHT22;23311;48.776;9.162;2023-11-19T11:42:37;15.80;95.50
292;DHT22;23311;48.776;9.162;2023-11-19T11:45:08;15.70;95.50
292;DHT22;23311;48.776;9.162;2023-11-19T11:48:14;15.60;95.50
292;DHT22;23311;48.776;9.162;2023-11-19T11:50:57;15.70;95.50
292;DHT22;23311;48.776;9.162;2023-11-19T11:53:25;15.90;95.50
292;DHT22;23311;48.776;9.162;2023-11-19T11:55:55;16.10;95.50
292;DHT22;23311;48.776;9.162;2023-11-19T11:58:34;16.30;95.50
292;DHT22;23311;48.776;9.162;2023-11-19T12:01:05;16.50;95.50
292;DHT22;23311;48.776;9.162;2023-11-19T12:03:37;16.50;95.50
292;DHT22;23311;48.776;9.162;2023-11-19T12:06:06;16.60;95.50
292;DHT22;23311;48.776;9.162;2023-11-19T12:08:35;16.60;95.50
292;DHT22;23311;48.776;9.162;2023-11-19T12:11:19;16.60;95.50
292;DHT22;23311;48.776;9.162;2023-11-19T12:13:57;16.70;95.50
292;DHT22;23311;48.776;9.162;2023-11-19T12:16:30;16.90;95.50
292;DHT22;23311;48.776;9.162;2023-11-19T12:19:04;17.10;95.50
292;DHT22;23311;48.776;9.162;2023-11-19T12:21:34;16.90;95.50
292;DHT22;23311;48.776;9.162;2023-11-19T12:24:05;16.80;95.50
292;DHT22;23311;48.776;9.162;2023-11-19T12:26:35;16.50;95.50
292;DHT22;23311;48.776;9.162;2023-11-19T12:29:04;16.60;95.50
292;DHT22;23311;48.776;9.162;2023-11-19T12:31:36;16.70;95.50
292;DHT22;23311;48.776;9.162;2023-11-19T12:34:07;16.60;95.50
292;DHT22;23311;48.776;9.162;2023-11-19T12:36:39;16.50;95.50
292;DHT22;23311;48.776;9.162;2023-11-19T12:39:09;16.30;95.50
292;DHT22;23311;48.776;9.162;2023-11-19T12:41:50;16.30;95.50
292;DHT22;23311;48.776;9.162;2023-11-19T12:44:19;16.30;95.50
292;DHT22;23311;48.776;9.162;2023-11-19T12:47:02;16.10;95.50
292;DHT22;23311;48.776;9.162;2023-11-19T12:49:30;16.00;95.50
292;DHT22;23311;48.776;9.162;2023-11-19T12:51:58;16.00;95.50
292;DHT22;23311;48.776;9.162;2023-11-19T12:54:34;16.00;95.50
292;DHT22;23311;48.776;9.162;2023-11-19T12:57:04;16.10;95.50
292;DHT22;23311;48.776;9.162;2023-11-19T12:59:32;16.10;95.50
292;DHT22;23311;48.776;9.162;2023-11-19T13:02:02;16.10;95.50
292;DHT22;23311;48.776;9.162;2023-11-19T13:04:33;16.10;95.50
292;DHT22;23311;48.776;9.162;2023-11-19T13:07:01;16.10;95.50
292;DHT22;23311;48.776;9.162;2023-11-19T13:09:32;16.10;95.50
292;DHT22;23311;48.776;9.162;2023-11-19T13:12:12;16.10;95.50
292;DHT22;23311;48.776;9.162;2023-11-19T13:14:41;16.10;95.50
292;DHT22;23311;48.776;9.162;2023-11-19T13:17:15;16.10;95.50
292;DHT22;23311;48.776;9.162;2023-11-19T13:19:46;16.10;95.50
292;DHT22;23311;48.776;9.162;2023-11-19T13:22:14;16.20;95.50
292;DHT22;23311;48.776;9.162;2023-11-19T13:24:42;16.10;95.50
292;DHT22;23311;48.776;9.162;2023-11-19T13:27:10;16.10;95.50
292;DHT22;23311;48.776;9.162;2023-11-19T13:29:38;16.00;95.50
292;DHT22;23311;48.776;9.162;2023-11-19T13:32:07;16.00;95.50
292;DHT22;23311;48.776;9.162;2023-11-19T13:34:36;16.00;95.50
292;DHT22;23311;48.776;9.162;2023-11-19T13:37:04;15.90;95.50
292;DHT22;23311;48.776;9.162;2023-11-19T13:39:32;15.90;95.50
292;DHT22;23311;48.776;9.162;2023-11-19T13:42:01;15.90;95.50
292;DHT22;23311;48.776;9.162;2023-11-19T13:44:32;15.90;95.50
292;DHT22;23311;48.776;9.162;2023-11-19T13:47:00;15.80;95.50
292;DHT22;23311;48.776;9.162;2023-11-19T13:49:29;15.80;95.50
292;DHT22;23311;48.776;9.162;2023-11-19T13:51:58;15.70;95.50
292;DHT22;23311;48.776;9.162;2023-11-19T13:54:27;15.70;95.50
292;DHT22;23311;48.776;9.162;2023-11-19T13:56:55;15.60;95.50
292;DHT22;23311;48.776;9.162;2023-11-19T13:59:25;15.50;95.50
292;DHT22;23311;48.776;9.162;2023-11-19T14:01:53;15.40;95.50
292;DHT22;23311;48.776;9.162;2023-11-19T14:04:21;15.50;95.50
292;DHT22;23311;48.776;9.162;2023-11-19T14:06:49;15.50;95.50
292;DHT22;23311;48.776;9.162;2023-11-19T14:09:19;15.30;95.50
292;DHT22;23311;48.776;9.162;2023-11-19T14:11:47;15.40;95.50
292;DHT22;23311;48.776;9.162;2023-11-19T14:14:18;15.40;95.50
292;DHT22;23311;48.776;9.162;2023-11-19T14:16:46;15.40;95.50
292;DHT22;23311;48.776;9.162;2023-11-19T14:19:14;15.20;95.50
292;DHT22;23311;48.776;9.162;2023-11-19T14:21:42;15.10;95.50
292;DHT22;23311;48.776;9.162;2023-11-19T14:24:12;15.10;95.50
292;DHT22;23311;48.776;9.162;2023-11-19T14:26:41;15.20;95.50
292;DHT22;23311;48.776;9.162;2023-11-19T14:29:10;15.10;95.50
292;DHT22;23311;48.776;9.162;2023-11-19T14:31:38;14.90;95.50
292;DHT22;23311;48.776;9.162;2023-11-19T14:34:06;14.80;95.50
292;DHT22;23311;48.776;9.162;2023-11-19T14:36:35;15.00;95.50
292;DHT22;23311;48.776;9.162;2023-11-19T14:39:03;15.10;95.50
292;DHT22;23311;48.776;9.162;2023-11-19T14:41:31;15.00;95.50
292;DHT22;23311;48.776;9.162;2023-11-19T14:44:00;14.80;95.50
292;DHT22;23311;48.776;9.162;2023-11-19T14:46:30;14.80;95.50
292;DHT22;23311;48.776;9.162;2023-11-19T14:48:58;14.70;95.50
292;DHT22;23311;48.776;9.162;2023-11-19T14:51:27;14.60;95.50
292;DHT22;23311;48.776;9.162;2023-11-19T14:53:55;14.50;95.50
292;DHT22;23311;48.776;9.162;2023-11-19T14:56:23;14.40;95.50
292;DHT22;23311;48.776;9.162;2023-11-19T14:58:51;14.30;95.50
292;DHT22;23311;48.776;9.162;2023-11-19T15:01:21;14.30;95.50
292;DHT22;23311;48.776;9.162;2023-11-19T15:03:49;14.20;95.50
292;DHT22;23311;48.776;9.162;2023-11-19T15:06:23;14.10;95.50
292;DHT22;23311;48.776;9.162;2023-11-19T15:08:52;14.00;95.50
292;DHT22;23311;48.776;9.162;2023-11-19T15:11:21;14.10;95.50
292;DHT22;23311;48.776;9.162;2023-11-19T15:13:49;14.60;95.50
292;DHT22;23311;48.776;9.162;2023-11-19T15:16:17;14.50;95.50
292;DHT22;23311;48.776;9.162;2023-11-19T15:18:52;14.40;95.50
292;DHT22;23311;48.776;9.162;2023-11-19T15:21:21;14.20;95.50
292;DHT22;23311;48.776;9.162;2023-11-19T15:23:49;14.40;95.50
292;DHT22;23311;48.776;9.162;2023-11-19T15:26:17;14.40;95.50
292;DHT22;23311;48.776;9.162;2023-11-19T15:28:46;14.40;95.50
292;DHT22;23311;48.776;9.162;2023-11-19T15:31:14;14.40;95.50
292;DHT22;23311;48.776;9.162;2023-11-19T15:33:43;14.30;95.50
292;DHT22;23311;48.776;9.162;2023-11-19T15:36:15;14.00;95.50
292;DHT22;23311;48.776;9.162;2023-11-19T15:38:43;13.70;95.50
292;DHT22;23311;48.776;9.162;2023-11-19T15:41:14;13.90;95.50
292;DHT22;23311;48.776;9.162;2023-11-19T15:43:43;13.70;95.50
292;DHT22;23311;48.776;9.162;2023-11-19T15:46:12;14.00;95.50
292;DHT22;23311;48.776;9.162;2023-11-19T15:48:40;13.90;95.50
292;DHT22;23311;48.776;9.162;2023-11-19T15:51:08;13.90;95.50
292;DHT22;23311;48.776;9.162;2023-11-19T15:53:38;13.90;95.50
292;DHT22;23311;48.776;9.162;2023-11-19T15:56:06;14.00;95.50
292;DHT22;23311;48.776;9.162;2023-11-19T15:58:34;13.90;95.50
292;DHT22;23311;48.776;9.162;2023-11-19T16:01:03;13.80;95.50
292;DHT22;23311;48.776;9.162;2023-11-19T16:03:31;13.60;95.50
292;DHT22;23311;48.776;9.162;2023-11-19T16:06:18;13.30;95.50
292;DHT22;23311;48.776;9.162;2023-11-19T16:08:48;13.60;95.50
292;DHT22;23311;48.776;9.162;2023-11-19T16:11:17;13.50;95.50
292;DHT22;23311;48.776;9.162;2023-11-19T16:13:45;13.20;95.50
292;DHT22;23311;48.776;9.162;2023-11-19T16:16:14;13.20;95.50
292;DHT22;23311;48.776;9.162;2023-11-19T16:18:42;13.20;95.50
292;DHT22;23311;48.776;9.162;2023-11-19T16:21:10;13.20;95.50